Terminal Aerodrome Forecast
Issued by NWS

Home | Current Version | Previous Version | Text Only | Print | Product List | Glossary On
Versions: 1 2 3 4 5 6 7 8 9 10 11 12 13 14 15 16 17
497
FTUS46 KSTO 170539
TAFSAC
TAF
KSAC 170539Z 1706/1806 VRB03KT P6SM SKC
     FM170700 VRB02KT 3SM BR SCT003
     FM171000 00000KT 1 1/2SM BR OVC002
      TEMPO 1713/1717 1/4SM FG VV001
     FM171900 VRB03KT 3SM BR OVC004
     FM172100 18004KT P6SM OVC250=

USA.gov is the U.S. government's official web portal to all federal, state and local government web resources and services.